Jury M — 3EOG2 — position and weather

sailwx.info

Track history (hours):
 
Tides and Currents Weather Stations Pressure Air Temp Water Temp Dewpoint Dewpoint Depression Visibility Wind Speed Wind Dir Waves Ship Positions

Jury M

Last reported at 2015-Jul-04 07:16 UTC. Time now 2015-Jul-07 02:30 UTC.
Position N 29°57' W 090°23'.

Length 182 m; draft 6.2 m.

Type: Cargo ship. MMSI: 355723000.

Date/timePositionNaut miles runAvg speedWind from/ knotsBaromVisibWave heightAir tempDewpointWater temp
2015-Jul-04 07:16N 29°57' W 090°23'13 4.8
2015-Jul-04 04:31N 29°55' W 090°08'  
2015-Jun-30 06:09N 25°44' W 079°47'6 9.6
2015-Jun-30 05:33N 25°50' W 079°46'1010.1
2015-Jun-30 04:33N 25°60' W 079°43'1010.4
2015-Jun-30 03:33N 26°10' W 079°40'1010.3
2015-Jun-30 02:33N 26°20' W 079°37'1010.5
2015-Jun-30 01:33N 26°30' W 079°36'1010.0
2015-Jun-30 00:33N 26°40' W 079°33'10 9.7
2015-Jun-29 23:33N 26°48' W 079°28'  
2015-Jun-26 11:18N 39°34' W 071°02'911.5
2015-Jun-26 10:33N 39°42' W 071°04'1211.9
2015-Jun-26 09:33N 39°54' W 071°08'1212.3
2015-Jun-26 08:33N 40°06' W 071°11'1212.3
2015-Jun-26 07:33N 40°18' W 071°14'1212.4
2015-Jun-26 06:33N 40°30' W 071°16'1312.7
2015-Jun-26 05:33N 40°43' W 071°19'1312.8
2015-Jun-26 04:33N 40°55' W 071°23'1312.7
2015-Jun-26 03:33N 41°08' W 071°26'1110.7
2015-Jun-26 02:33N 41°18' W 071°30'1111.3
2015-Jun-26 01:34N 41°16' W 071°45'1515.2
2015-Jun-26 00:34N 41°14' W 072°05'1515.2
2015-Jun-25 23:33N 41°11' W 072°25'1414.1
2015-Jun-25 22:33N 41°11' W 072°44'10 9.9
2015-Jun-25 21:33N 41°17' W 072°55'1 1.0
2015-Jun-25 20:31N 41°18' W 072°54'0 0.0
2015-Jun-25 19:31N 41°18' W 072°54'0 0.0
2015-Jun-25 18:31N 41°18' W 072°54'0 0.0
2015-Jun-25 17:31N 41°18' W 072°54'0 0.0
2015-Jun-25 16:31N 41°18' W 072°54'0 0.0
2015-Jun-25 11:31N 41°18' W 072°54'0 0.0
2015-Jun-25 10:31N 41°18' W 072°54'0 0.0
2015-Jun-25 09:31N 41°18' W 072°54'0 0.0
2015-Jun-25 08:31N 41°18' W 072°54'0 0.0
2015-Jun-25 07:31N 41°18' W 072°54'0 0.0
2015-Jun-25 06:28N 41°18' W 072°54'0 0.0
2015-Jun-25 05:31N 41°18' W 072°54'0 0.0
2015-Jun-25 04:31N 41°18' W 072°54'0 0.0
2015-Jun-25 03:31N 41°18' W 072°54'0 0.0
2015-Jun-25 02:31N 41°18' W 072°54'0 0.0
2015-Jun-25 01:19N 41°18' W 072°54'0 0.0
2015-Jun-25 00:31N 41°18' W 072°54'0 0.0
2015-Jun-24 23:31N 41°18' W 072°54'0 0.0
2015-Jun-24 22:31N 41°18' W 072°54'0 0.0
2015-Jun-24 21:25N 41°18' W 072°54'0 0.0
2015-Jun-24 20:31N 41°18' W 072°54'0 0.0
2015-Jun-24 19:31N 41°18' W 072°54'0 0.0
2015-Jun-24 18:31N 41°18' W 072°54'0 0.0
2015-Jun-24 17:31N 41°18' W 072°54'0 0.0
2015-Jun-24 16:31N 41°18' W 072°54'0 0.0
2015-Jun-24 15:31N 41°18' W 072°54'0 0.0
2015-Jun-24 14:31N 41°18' W 072°54'0 0.0
2015-Jun-24 13:16N 41°18' W 072°54'0 0.0
2015-Jun-24 12:25N 41°18' W 072°54'0 0.0
2015-Jun-24 11:25N 41°18' W 072°54'0 0.0
2015-Jun-24 10:31N 41°18' W 072°54'0 0.0
2015-Jun-24 09:31N 41°18' W 072°54'0 0.0
2015-Jun-24 08:25N 41°18' W 072°54'  
Track history (hours):
 
Tides and Currents Weather Stations Pressure Air Temp Water Temp Dewpoint Dewpoint Depression Visibility Wind Speed Wind Dir Waves Ship Positions

Jury M

Last reported at 2015-Jul-04 07:16 UTC. Time now 2015-Jul-07 02:30 UTC.
Position N 29°57' W 090°23'.

Length 182 m; draft 6.2 m.

Type: Cargo ship. MMSI: 355723000.

Date/timePositionNaut miles runAvg speedWind from/ knotsBaromVisibWave heightAir tempDewpointWater temp
2015-Jul-04 07:16N 29°57' W 090°23'13 4.8
2015-Jul-04 04:31N 29°55' W 090°08'  
2015-Jun-30 06:09N 25°44' W 079°47'6 9.6
2015-Jun-30 05:33N 25°50' W 079°46'1010.1
2015-Jun-30 04:33N 25°60' W 079°43'1010.4
2015-Jun-30 03:33N 26°10' W 079°40'1010.3
2015-Jun-30 02:33N 26°20' W 079°37'1010.5
2015-Jun-30 01:33N 26°30' W 079°36'1010.0
2015-Jun-30 00:33N 26°40' W 079°33'10 9.7
2015-Jun-29 23:33N 26°48' W 079°28'  
2015-Jun-26 11:18N 39°34' W 071°02'911.5
2015-Jun-26 10:33N 39°42' W 071°04'1211.9
2015-Jun-26 09:33N 39°54' W 071°08'1212.3
2015-Jun-26 08:33N 40°06' W 071°11'1212.3
2015-Jun-26 07:33N 40°18' W 071°14'1212.4
2015-Jun-26 06:33N 40°30' W 071°16'1312.7
2015-Jun-26 05:33N 40°43' W 071°19'1312.8
2015-Jun-26 04:33N 40°55' W 071°23'1312.7
2015-Jun-26 03:33N 41°08' W 071°26'1110.7
2015-Jun-26 02:33N 41°18' W 071°30'1111.3
2015-Jun-26 01:34N 41°16' W 071°45'1515.2
2015-Jun-26 00:34N 41°14' W 072°05'1515.2
2015-Jun-25 23:33N 41°11' W 072°25'1414.1
2015-Jun-25 22:33N 41°11' W 072°44'10 9.9
2015-Jun-25 21:33N 41°17' W 072°55'1 1.0
2015-Jun-25 20:31N 41°18' W 072°54'0 0.0
2015-Jun-25 19:31N 41°18' W 072°54'0 0.0
2015-Jun-25 18:31N 41°18' W 072°54'0 0.0
2015-Jun-25 17:31N 41°18' W 072°54'0 0.0
2015-Jun-25 16:31N 41°18' W 072°54'0 0.0
2015-Jun-25 11:31N 41°18' W 072°54'0 0.0
2015-Jun-25 10:31N 41°18' W 072°54'0 0.0
2015-Jun-25 09:31N 41°18' W 072°54'0 0.0
2015-Jun-25 08:31N 41°18' W 072°54'0 0.0
2015-Jun-25 07:31N 41°18' W 072°54'0 0.0
2015-Jun-25 06:28N 41°18' W 072°54'0 0.0
2015-Jun-25 05:31N 41°18' W 072°54'0 0.0
2015-Jun-25 04:31N 41°18' W 072°54'0 0.0
2015-Jun-25 03:31N 41°18' W 072°54'0 0.0
2015-Jun-25 02:31N 41°18' W 072°54'0 0.0
2015-Jun-25 01:19N 41°18' W 072°54'0 0.0
2015-Jun-25 00:31N 41°18' W 072°54'0 0.0
2015-Jun-24 23:31N 41°18' W 072°54'0 0.0
2015-Jun-24 22:31N 41°18' W 072°54'0 0.0
2015-Jun-24 21:25N 41°18' W 072°54'0 0.0
2015-Jun-24 20:31N 41°18' W 072°54'0 0.0
2015-Jun-24 19:31N 41°18' W 072°54'0 0.0
2015-Jun-24 18:31N 41°18' W 072°54'0 0.0
2015-Jun-24 17:31N 41°18' W 072°54'0 0.0
2015-Jun-24 16:31N 41°18' W 072°54'0 0.0
2015-Jun-24 15:31N 41°18' W 072°54'0 0.0
2015-Jun-24 14:31N 41°18' W 072°54'0 0.0
2015-Jun-24 13:16N 41°18' W 072°54'0 0.0
2015-Jun-24 12:25N 41°18' W 072°54'0 0.0
2015-Jun-24 11:25N 41°18' W 072°54'0 0.0
2015-Jun-24 10:31N 41°18' W 072°54'0 0.0
2015-Jun-24 09:31N 41°18' W 072°54'0 0.0
2015-Jun-24 08:25N 41°18' W 072°54'  

Dump ship's entire track history